EGCN/DSA METAR and TAF weather

Enter ICAO airport designator
Station Type Date Time Source
EGCN METAR 2019/06/17 13:20 UTC NOAA

EGCN 171320Z 21011KT 9999 FEW028 BKN040 19/13 Q1015


Station Type Date Time Source
EGCN Decoded METAR 2019/06/17 13:20 UTC NOAA

Station name not available
Jun 17, 2019 - 09:20 AM EDT / 2019.06.17 1320 UTC
Wind: from the SSW (210 degrees) at 13 MPH (11 KT):0
Visibility: greater than 7 mile(s):0
Sky conditions: mostly cloudy
Temperature: 66 F (19 C)
Dew Point: 55 F (13 C)
Relative Humidity: 68%
Pressure (altimeter): 29.97 in. Hg (1015 hPa)
ob: EGCN 171320Z 21011KT 9999 FEW028 BKN040 19/13 Q1015
cycle: 13

Station Type Date Time Source
EGCN TAF 2019/06/17 12:00 UTC NOAA

TAF EGCN 171055Z 1712/1812 20012KT 9999 SCT025
TEMPO 1712/1721 7000 SHRA PROB30
TEMPO 1712/1718 4000 +SHRA
BECMG 1721/1724 VRB03KT PROB30 1803/1806 7000
BECMG 1806/1809 23012KT

Example: see airport list